Wiscasset, ME

2:41 PM EDT on July 29, 2016 (GMT -0400)
Acorn Road | | Change Station

Elev 144 ft 44.00 °N, 69.70 °W | Updated 5 seconds ago

Scattered Clouds
Scattered Clouds
79.2 °F
Feels Like 82 °F
N
2.0
Wind Variable Wind from ESE
Gusts 3.0 mph

Today
High -- | Low -- °F
--% Chance of Precip.
Yesterday
High -- | Low -- °F
Precip. -- in
Pressure 29.89 in
Visibility 10.0 miles
Clouds Few 7500 ft
Scattered Clouds 10000 ft
Heat Index 82 °F
Dew Point 70 °F
Humidity 73%
Rainfall 0.00 in
Snow Depth Not available.
5:24 AM 8:05 PM
Waning Crescent, 20% visible
METAR KIWI 291753Z AUTO VRB03KT 10SM FEW075 SCT100 26/19 A2989 RMK AO2 SLP122 T02560189 10267 20217 57000
Pressure 29.89 in
Visibility 10.0 miles
Clouds Few 7500 ft
Scattered Clouds 10000 ft
Heat Index 82 °F
Dew Point 70 °F
Humidity 73%
Rainfall 0.00 in
Snow Depth Not available.
5:24 AM 8:05 PM
Waning Crescent, 20% visible
METAR KIWI 291753Z AUTO VRB03KT 10SM FEW075 SCT100 26/19 A2989 RMK AO2 SLP122 T02560189 10267 20217 57000

10-Day Weather Forecast

Almanac

Astronomy

Jul. 29, 2016 Rise Set
Actual Time
Civil Twilight
Nautical Twilight
Astronomical Twilight
Moon
Length of Visible Light
Length of Day
Tomorrow will be .
, % of the Moon is Illuminated

Today's Extremes

State Highs State Lows

Community

WunderPhotos

Upload Photos

1,928,393 photos uploaded!

WunderBlog® & News

Nearby

Air Quality

  Air Quality AQ Index Pollutant
Not available.

Snow Depth

Station Depth Elevation

Earthquake Activity

City Distance Mag. Time & Date
Minimum magnitude displayed is 2.5.

Coastal Water Temperatures

Place Temperature

Stations

Nearby Weather Stations

Station Location Temp. Windchill Dew Point Humidity Wind Precip. Elev Updated Type
                   

Watches & Warnings

There are currently no watches in effect.